DAL1670 KATL-TNCM
Flight info
| Callsign | DAL1670 |
|---|---|
| Flight time | 1h 49m |
| Altitude | 33000 |
| Route | VRSTY3 NOKIE DCT YANTI Q89 MANLE Y185 RENAH Y355 SLUGO |
| Aircraft | B739/M-SDE2E3FGHIRWXY/LB1 |
Departure
| Time | 2026-05-04 22:56 |
|---|---|
| Airport | Hartsfield Jackson Atlanta International Airport (KATL) |
Arrival
| Time | 2026-05-05 00:46 |
|---|---|
| Airport | Princess Juliana International Airport (TNCM) |
| Time | Latitude | Longitude | Altitude | Speed | Heading |
|---|---|---|---|---|---|
| 2026-05-04 22:15 | 33.63998 | -84.43540 | 1005 ft | 0 kts | 271° |
| 2026-05-04 22:43 | 33.63998 | -84.43532 | 1005 ft | 2 kts | 267° |
| 2026-05-04 22:44 | 33.64000 | -84.43512 | 1005 ft | 2 kts | 260° |
| 2026-05-04 22:44 | 33.64004 | -84.43493 | 1005 ft | 2 kts | 248° |
| 2026-05-04 22:44 | 33.64011 | -84.43476 | 1005 ft | 2 kts | 227° |
| 2026-05-04 22:44 | 33.64025 | -84.43464 | 1005 ft | 2 kts | 200° |
| 2026-05-04 22:45 | 33.64040 | -84.43459 | 1005 ft | 2 kts | 181° |
| 2026-05-04 22:45 | 33.64045 | -84.43459 | 1005 ft | 0 kts | 179° |
| 2026-05-04 22:46 | 33.64036 | -84.43459 | 1005 ft | 6 kts | 179° |
| 2026-05-04 22:46 | 33.63980 | -84.43458 | 1005 ft | 8 kts | 179° |
| 2026-05-04 22:46 | 33.63922 | -84.43458 | 1005 ft | 8 kts | 179° |
| 2026-05-04 22:47 | 33.63866 | -84.43458 | 1005 ft | 8 kts | 181° |
| 2026-05-04 22:47 | 33.63812 | -84.43459 | 1005 ft | 8 kts | 180° |
| 2026-05-04 22:47 | 33.63771 | -84.43459 | 1005 ft | 3 kts | 180° |
| 2026-05-04 22:47 | 33.63757 | -84.43458 | 1005 ft | 0 kts | 180° |
| 2026-05-04 22:49 | 33.63712 | -84.43456 | 1005 ft | 12 kts | 171° |
| 2026-05-04 22:49 | 33.63665 | -84.43389 | 1005 ft | 11 kts | 96° |
| 2026-05-04 22:49 | 33.63664 | -84.43295 | 1005 ft | 11 kts | 90° |
| 2026-05-04 22:49 | 33.63664 | -84.43184 | 1005 ft | 15 kts | 90° |
| 2026-05-04 22:50 | 33.63664 | -84.43063 | 1005 ft | 14 kts | 90° |
| 2026-05-04 22:50 | 33.63664 | -84.42946 | 1005 ft | 14 kts | 90° |
| 2026-05-04 22:50 | 33.63664 | -84.42835 | 1005 ft | 13 kts | 90° |
| 2026-05-04 22:50 | 33.63657 | -84.42727 | 1006 ft | 13 kts | 96° |
| 2026-05-04 22:51 | 33.63655 | -84.42623 | 1006 ft | 12 kts | 90° |
| 2026-05-04 22:51 | 33.63655 | -84.42521 | 1006 ft | 12 kts | 90° |
| 2026-05-04 22:51 | 33.63655 | -84.42421 | 1006 ft | 12 kts | 90° |
| 2026-05-04 22:51 | 33.63655 | -84.42319 | 1006 ft | 14 kts | 90° |
| 2026-05-04 22:52 | 33.63655 | -84.42186 | 1006 ft | 16 kts | 90° |
| 2026-05-04 22:52 | 33.63655 | -84.42052 | 1006 ft | 16 kts | 90° |
| 2026-05-04 22:52 | 33.63655 | -84.41922 | 1005 ft | 15 kts | 90° |
| 2026-05-04 22:52 | 33.63655 | -84.41798 | 1005 ft | 15 kts | 90° |
| 2026-05-04 22:53 | 33.63655 | -84.41664 | 1005 ft | 17 kts | 90° |
| 2026-05-04 22:53 | 33.63655 | -84.41523 | 1005 ft | 17 kts | 90° |
| 2026-05-04 22:53 | 33.63655 | -84.41387 | 1005 ft | 16 kts | 90° |
| 2026-05-04 22:53 | 33.63655 | -84.41257 | 1005 ft | 15 kts | 90° |
| 2026-05-04 22:54 | 33.63655 | -84.41133 | 1005 ft | 15 kts | 90° |
| 2026-05-04 22:54 | 33.63655 | -84.41013 | 1005 ft | 14 kts | 90° |
| 2026-05-04 22:54 | 33.63632 | -84.40913 | 1005 ft | 9 kts | 149° |
| 2026-05-04 22:54 | 33.63569 | -84.40909 | 1005 ft | 9 kts | 179° |
| 2026-05-04 22:55 | 33.63507 | -84.40911 | 1006 ft | 9 kts | 189° |
| 2026-05-04 22:55 | 33.63472 | -84.40966 | 1006 ft | 9 kts | 264° |
| 2026-05-04 22:55 | 33.63471 | -84.41089 | 1005 ft | 39 kts | 270° |
| 2026-05-04 22:55 | 33.63471 | -84.41724 | 1005 ft | 110 kts | 270° |
| 2026-05-04 22:56 | 33.63466 | -84.42869 | 1007 ft | 166 kts | 269° |
| 2026-05-04 22:56 | 33.63455 | -84.44422 | 1191 ft | 201 kts | 269° |
| 2026-05-04 22:56 | 33.63442 | -84.46203 | 1620 ft | 226 kts | 269° |
| 2026-05-04 22:56 | 33.63414 | -84.48176 | 2096 ft | 247 kts | 270° |
| 2026-05-04 22:57 | 33.63349 | -84.50279 | 2783 ft | 251 kts | 269° |
| 2026-05-04 22:57 | 33.63260 | -84.52391 | 3219 ft | 258 kts | 268° |
| 2026-05-04 22:57 | 33.63258 | -84.54422 | 3783 ft | 222 kts | 274° |
| 2026-05-04 22:57 | 33.63335 | -84.56201 | 3863 ft | 209 kts | 274° |
| 2026-05-04 22:58 | 33.63387 | -84.57946 | 3947 ft | 212 kts | 272° |
| 2026-05-04 22:58 | 33.63419 | -84.59801 | 4067 ft | 234 kts | 271° |
| 2026-05-04 22:58 | 33.63436 | -84.61849 | 4305 ft | 256 kts | 271° |
| 2026-05-04 22:58 | 33.63386 | -84.64023 | 4926 ft | 264 kts | 260° |
| 2026-05-04 22:59 | 33.62624 | -84.66005 | 5669 ft | 268 kts | 231° |
| 2026-05-04 22:59 | 33.61156 | -84.67440 | 6282 ft | 277 kts | 212° |
| 2026-05-04 22:59 | 33.59476 | -84.68600 | 6934 ft | 281 kts | 211° |
| 2026-05-04 22:59 | 33.57657 | -84.69492 | 7587 ft | 287 kts | 190° |
| 2026-05-04 23:00 | 33.55660 | -84.69457 | 8285 ft | 290 kts | 173° |
| 2026-05-04 23:00 | 33.53691 | -84.69067 | 8967 ft | 293 kts | 172° |
| 2026-05-04 23:00 | 33.51658 | -84.68648 | 9542 ft | 299 kts | 172° |
| 2026-05-04 23:00 | 33.49587 | -84.68235 | 10167 ft | 303 kts | 173° |
| 2026-05-04 23:01 | 33.47504 | -84.67833 | 10808 ft | 304 kts | 173° |
| 2026-05-04 23:01 | 33.45415 | -84.67437 | 11427 ft | 306 kts | 173° |
| 2026-05-04 23:01 | 33.43319 | -84.66918 | 12019 ft | 311 kts | 160° |
| 2026-05-04 23:01 | 33.41500 | -84.65502 | 12483 ft | 321 kts | 134° |
| 2026-05-04 23:02 | 33.40163 | -84.63254 | 12629 ft | 340 kts | 121° |
| 2026-05-04 23:02 | 33.38944 | -84.60736 | 12777 ft | 359 kts | 120° |
| 2026-05-04 23:02 | 33.37694 | -84.58063 | 12918 ft | 376 kts | 119° |
| 2026-05-04 23:02 | 33.36392 | -84.55273 | 13226 ft | 387 kts | 120° |
| 2026-05-04 23:03 | 33.35065 | -84.52451 | 13761 ft | 391 kts | 120° |
| 2026-05-04 23:03 | 33.33736 | -84.49652 | 14298 ft | 393 kts | 120° |
| 2026-05-04 23:03 | 33.32376 | -84.46808 | 14800 ft | 396 kts | 120° |
| 2026-05-04 23:03 | 33.30996 | -84.43939 | 15305 ft | 399 kts | 121° |
| 2026-05-04 23:04 | 33.29601 | -84.41049 | 15853 ft | 402 kts | 121° |
| 2026-05-04 23:04 | 33.28200 | -84.38151 | 16361 ft | 405 kts | 121° |
| 2026-05-04 23:04 | 33.26785 | -84.35227 | 16830 ft | 408 kts | 121° |
| 2026-05-04 23:04 | 33.25357 | -84.32281 | 17293 ft | 411 kts | 121° |
| 2026-05-04 23:05 | 33.23914 | -84.29304 | 17767 ft | 415 kts | 121° |
| 2026-05-04 23:05 | 33.22461 | -84.26310 | 18240 ft | 417 kts | 121° |
| 2026-05-04 23:05 | 33.20999 | -84.23297 | 18661 ft | 420 kts | 121° |
| 2026-05-04 23:05 | 33.19527 | -84.20268 | 19069 ft | 423 kts | 122° |
| 2026-05-04 23:06 | 33.18549 | -84.18255 | 19353 ft | 424 kts | 122° |
| 2026-05-04 23:06 | 33.17063 | -84.15201 | 19762 ft | 427 kts | 122° |
| 2026-05-04 23:06 | 33.15566 | -84.12127 | 20172 ft | 430 kts | 122° |
| 2026-05-04 23:06 | 33.14059 | -84.09033 | 20573 ft | 432 kts | 122° |
| 2026-05-04 23:07 | 33.12541 | -84.05920 | 20961 ft | 435 kts | 122° |
| 2026-05-04 23:07 | 33.11012 | -84.02787 | 21356 ft | 438 kts | 122° |
| 2026-05-04 23:07 | 33.09474 | -83.99644 | 21745 ft | 440 kts | 123° |
| 2026-05-04 23:07 | 33.07613 | -83.96761 | 22071 ft | 439 kts | 141° |
| 2026-05-04 23:08 | 33.04381 | -83.93910 | 22612 ft | 437 kts | 148° |
| 2026-05-04 23:08 | 33.02676 | -83.92520 | 22866 ft | 439 kts | 149° |
| 2026-05-04 23:08 | 33.00173 | -83.90490 | 23231 ft | 442 kts | 149° |
| 2026-05-04 23:08 | 32.97624 | -83.88410 | 23591 ft | 445 kts | 148° |
| 2026-05-04 23:09 | 32.95066 | -83.86304 | 23912 ft | 447 kts | 148° |
| 2026-05-04 23:09 | 32.92507 | -83.84181 | 24248 ft | 449 kts | 148° |
| 2026-05-04 23:09 | 32.89945 | -83.82048 | 24583 ft | 451 kts | 148° |
| 2026-05-04 23:09 | 32.87372 | -83.79901 | 24903 ft | 452 kts | 149° |
| 2026-05-04 23:10 | 32.84791 | -83.77749 | 25215 ft | 454 kts | 149° |
| 2026-05-04 23:10 | 32.82195 | -83.75585 | 25515 ft | 456 kts | 149° |
| 2026-05-04 23:10 | 32.79584 | -83.73412 | 25816 ft | 459 kts | 149° |
| 2026-05-04 23:10 | 32.76963 | -83.71232 | 26121 ft | 460 kts | 149° |
| 2026-05-04 23:11 | 32.74368 | -83.69075 | 26412 ft | 462 kts | 149° |
| 2026-05-04 23:11 | 32.71727 | -83.66882 | 26701 ft | 464 kts | 150° |
| 2026-05-04 23:11 | 32.69075 | -83.64682 | 26975 ft | 466 kts | 150° |
| 2026-05-04 23:11 | 32.66431 | -83.62428 | 27251 ft | 468 kts | 149° |
| 2026-05-04 23:12 | 32.63798 | -83.60110 | 27520 ft | 471 kts | 148° |
| 2026-05-04 23:12 | 32.61173 | -83.57770 | 27786 ft | 473 kts | 148° |
| 2026-05-04 23:12 | 32.58540 | -83.55417 | 28052 ft | 474 kts | 148° |
| 2026-05-04 23:12 | 32.55929 | -83.53089 | 28310 ft | 476 kts | 148° |
| 2026-05-04 23:13 | 32.53277 | -83.50735 | 28561 ft | 478 kts | 149° |
| 2026-05-04 23:13 | 32.50600 | -83.48369 | 28813 ft | 479 kts | 149° |
| 2026-05-04 23:13 | 32.47920 | -83.46005 | 29135 ft | 479 kts | 149° |
| 2026-05-04 23:13 | 32.45251 | -83.43654 | 29541 ft | 477 kts | 149° |
| 2026-05-04 23:14 | 32.42590 | -83.41312 | 29958 ft | 476 kts | 149° |
| 2026-05-04 23:14 | 32.39930 | -83.38974 | 30273 ft | 475 kts | 149° |
| 2026-05-04 23:14 | 32.37276 | -83.36644 | 30511 ft | 475 kts | 150° |
| 2026-05-04 23:14 | 32.34622 | -83.34317 | 30778 ft | 475 kts | 150° |
| 2026-05-04 23:15 | 32.31969 | -83.31992 | 31068 ft | 474 kts | 150° |
| 2026-05-04 23:15 | 32.29321 | -83.29671 | 31342 ft | 474 kts | 150° |
| 2026-05-04 23:15 | 32.26671 | -83.27351 | 31588 ft | 474 kts | 150° |
| 2026-05-04 23:15 | 32.24018 | -83.25031 | 31835 ft | 474 kts | 151° |
| 2026-05-04 23:16 | 32.21376 | -83.22721 | 32076 ft | 473 kts | 151° |
| 2026-05-04 23:16 | 32.18727 | -83.20408 | 32294 ft | 474 kts | 151° |
| 2026-05-04 23:16 | 32.16078 | -83.18096 | 32519 ft | 474 kts | 151° |
| 2026-05-04 23:16 | 32.13459 | -83.15810 | 32750 ft | 473 kts | 151° |
| 2026-05-04 23:17 | 32.10813 | -83.13504 | 32984 ft | 473 kts | 152° |
| 2026-05-04 23:17 | 32.08168 | -83.11200 | 33172 ft | 473 kts | 152° |
| 2026-05-04 23:17 | 32.05512 | -83.08889 | 33357 ft | 474 kts | 152° |
| 2026-05-04 23:17 | 32.02859 | -83.06582 | 33584 ft | 473 kts | 152° |
| 2026-05-04 23:18 | 32.00212 | -83.04280 | 33804 ft | 473 kts | 152° |
| 2026-05-04 23:18 | 31.97556 | -83.01973 | 33973 ft | 473 kts | 152° |
| 2026-05-04 23:18 | 31.92251 | -82.97372 | 34042 ft | 475 kts | 152° |
| 2026-05-04 23:19 | 31.86934 | -82.92765 | 34046 ft | 475 kts | 152° |
| 2026-05-04 23:19 | 31.81642 | -82.88185 | 34042 ft | 475 kts | 152° |
| 2026-05-04 23:20 | 31.76338 | -82.83520 | 34038 ft | 478 kts | 150° |
| 2026-05-04 23:20 | 31.71157 | -82.78580 | 34039 ft | 480 kts | 148° |
| 2026-05-04 23:21 | 31.66007 | -82.73603 | 34048 ft | 480 kts | 149° |
| 2026-05-04 23:21 | 31.60827 | -82.68652 | 34044 ft | 480 kts | 149° |
| 2026-05-04 23:22 | 31.55627 | -82.63726 | 34038 ft | 481 kts | 149° |
| 2026-05-04 23:22 | 31.50412 | -82.58800 | 34044 ft | 481 kts | 149° |
| 2026-05-04 23:23 | 31.45192 | -82.53877 | 34041 ft | 482 kts | 149° |
| 2026-05-04 23:23 | 31.39957 | -82.48945 | 34043 ft | 483 kts | 149° |
| 2026-05-04 23:24 | 31.34758 | -82.44053 | 34052 ft | 483 kts | 149° |
| 2026-05-04 23:24 | 31.29503 | -82.39116 | 34052 ft | 484 kts | 149° |
| 2026-05-04 23:25 | 31.24252 | -82.34189 | 34049 ft | 484 kts | 149° |
| 2026-05-04 23:25 | 31.18990 | -82.29260 | 34054 ft | 484 kts | 149° |
| 2026-05-04 23:26 | 31.13731 | -82.24340 | 34057 ft | 485 kts | 149° |
| 2026-05-04 23:26 | 31.08494 | -82.19449 | 34072 ft | 485 kts | 149° |
| 2026-05-04 23:27 | 31.03227 | -82.14537 | 34074 ft | 485 kts | 149° |
| 2026-05-04 23:27 | 30.97955 | -82.09627 | 34084 ft | 485 kts | 149° |
| 2026-05-04 23:28 | 30.92678 | -82.04719 | 34094 ft | 485 kts | 149° |
| 2026-05-04 23:28 | 30.87394 | -81.99813 | 34098 ft | 486 kts | 150° |
| 2026-05-04 23:29 | 30.82104 | -81.94907 | 34089 ft | 486 kts | 150° |
| 2026-05-04 23:29 | 30.76813 | -81.90008 | 34090 ft | 486 kts | 150° |
| 2026-05-04 23:30 | 30.71545 | -81.85136 | 34088 ft | 487 kts | 150° |
| 2026-05-04 23:30 | 30.66226 | -81.80224 | 34079 ft | 490 kts | 148° |
| 2026-05-04 23:31 | 30.60831 | -81.75319 | 34078 ft | 492 kts | 150° |
| 2026-05-04 23:31 | 30.55212 | -81.70746 | 34078 ft | 494 kts | 153° |
| 2026-05-04 23:32 | 30.49507 | -81.66248 | 34071 ft | 497 kts | 153° |
| 2026-05-04 23:32 | 30.43838 | -81.61727 | 34070 ft | 498 kts | 152° |
| 2026-05-04 23:33 | 30.38143 | -81.57149 | 34075 ft | 498 kts | 152° |
| 2026-05-04 23:33 | 30.32456 | -81.52576 | 34073 ft | 497 kts | 152° |
| 2026-05-04 23:34 | 30.26778 | -81.48022 | 34073 ft | 496 kts | 152° |
| 2026-05-04 23:34 | 30.21102 | -81.43478 | 34073 ft | 495 kts | 152° |
| 2026-05-04 23:35 | 30.15444 | -81.38954 | 34085 ft | 493 kts | 152° |
| 2026-05-04 23:35 | 30.09797 | -81.34449 | 34084 ft | 492 kts | 152° |
| 2026-05-04 23:36 | 30.04199 | -81.29990 | 34084 ft | 491 kts | 152° |
| 2026-05-04 23:36 | 29.98576 | -81.25516 | 34091 ft | 490 kts | 152° |
| 2026-05-04 23:37 | 29.92961 | -81.21054 | 34091 ft | 489 kts | 152° |
| 2026-05-04 23:37 | 29.87353 | -81.16602 | 34089 ft | 489 kts | 152° |
| 2026-05-04 23:38 | 29.81713 | -81.12239 | 34081 ft | 485 kts | 157° |
| 2026-05-04 23:38 | 29.75648 | -81.09123 | 34082 ft | 475 kts | 165° |
| 2026-05-04 23:39 | 29.69496 | -81.06317 | 34085 ft | 476 kts | 165° |
| 2026-05-04 23:39 | 29.63335 | -81.03469 | 34084 ft | 477 kts | 165° |
| 2026-05-04 23:40 | 29.57218 | -81.00596 | 34081 ft | 478 kts | 165° |
| 2026-05-04 23:40 | 29.51018 | -80.97671 | 34083 ft | 479 kts | 164° |
| 2026-05-04 23:41 | 29.44877 | -80.94778 | 34074 ft | 480 kts | 164° |
| 2026-05-04 23:41 | 29.38683 | -80.91866 | 34077 ft | 481 kts | 164° |
| 2026-05-04 23:42 | 29.32484 | -80.88957 | 34075 ft | 481 kts | 164° |
| 2026-05-04 23:42 | 29.26288 | -80.86053 | 34076 ft | 481 kts | 164° |
| 2026-05-04 23:43 | 29.20088 | -80.83151 | 34071 ft | 481 kts | 164° |
| 2026-05-04 23:43 | 29.13882 | -80.80250 | 34076 ft | 481 kts | 164° |
| 2026-05-04 23:44 | 29.07734 | -80.77380 | 34076 ft | 480 kts | 164° |
| 2026-05-04 23:44 | 29.01527 | -80.74485 | 34072 ft | 480 kts | 164° |
| 2026-05-04 23:45 | 28.95344 | -80.71605 | 34070 ft | 479 kts | 164° |
| 2026-05-04 23:45 | 28.89220 | -80.68566 | 34051 ft | 485 kts | 155° |
| 2026-05-04 23:46 | 28.86434 | -80.66337 | 34063 ft | 492 kts | 144° |
| 2026-05-04 23:46 | 28.83986 | -80.63576 | 34053 ft | 499 kts | 133° |
| 2026-05-04 23:46 | 28.80097 | -80.57040 | 34056 ft | 502 kts | 126° |
| 2026-05-04 23:47 | 28.76324 | -80.50328 | 34049 ft | 502 kts | 127° |
| 2026-05-04 23:47 | 28.72461 | -80.43694 | 34053 ft | 502 kts | 127° |
| 2026-05-04 23:48 | 28.68575 | -80.37096 | 34053 ft | 501 kts | 127° |
| 2026-05-04 23:48 | 28.64676 | -80.30518 | 34049 ft | 501 kts | 127° |
| 2026-05-04 23:49 | 28.60765 | -80.23931 | 34051 ft | 501 kts | 128° |
| 2026-05-04 23:49 | 28.56857 | -80.17352 | 34062 ft | 501 kts | 128° |
| 2026-05-04 23:50 | 28.52969 | -80.10814 | 33824 ft | 502 kts | 128° |
| 2026-05-04 23:50 | 28.51010 | -80.07523 | 33699 ft | 501 kts | 128° |
| 2026-05-04 23:50 | 28.49059 | -80.04247 | 33566 ft | 500 kts | 128° |
| 2026-05-04 23:51 | 28.47107 | -80.00973 | 33433 ft | 499 kts | 128° |
| 2026-05-04 23:51 | 28.45156 | -79.97703 | 33305 ft | 499 kts | 128° |
| 2026-05-04 23:51 | 28.43206 | -79.94438 | 33178 ft | 500 kts | 128° |
| 2026-05-04 23:51 | 28.41244 | -79.91158 | 33091 ft | 503 kts | 128° |
| 2026-05-04 23:52 | 28.37333 | -79.84621 | 33062 ft | 501 kts | 128° |
| 2026-05-04 23:52 | 28.33415 | -79.78082 | 33059 ft | 501 kts | 128° |
| 2026-05-04 23:53 | 28.29493 | -79.71547 | 33064 ft | 500 kts | 129° |
| 2026-05-04 23:53 | 28.25571 | -79.65022 | 33067 ft | 500 kts | 129° |
| 2026-05-04 23:54 | 28.21645 | -79.58502 | 33070 ft | 500 kts | 129° |
| 2026-05-04 23:54 | 28.17743 | -79.52030 | 33068 ft | 500 kts | 129° |
| 2026-05-04 23:55 | 28.13817 | -79.45527 | 33066 ft | 500 kts | 129° |
| 2026-05-04 23:56 | 28.08585 | -79.36878 | 33065 ft | 500 kts | 130° |
| 2026-05-04 23:56 | 28.04649 | -79.30382 | 33062 ft | 500 kts | 130° |
| 2026-05-04 23:57 | 28.00710 | -79.23890 | 33064 ft | 500 kts | 130° |
| 2026-05-04 23:57 | 27.96772 | -79.17409 | 33065 ft | 499 kts | 130° |
| 2026-05-04 23:58 | 27.92834 | -79.10938 | 33065 ft | 499 kts | 130° |
| 2026-05-04 23:58 | 27.88911 | -79.04524 | 33066 ft | 499 kts | 130° |
| 2026-05-04 23:59 | 27.84961 | -78.98082 | 33067 ft | 498 kts | 130° |
| 2026-05-04 23:59 | 27.81011 | -78.91646 | 33069 ft | 498 kts | 131° |
| 2026-05-05 00:00 | 27.77062 | -78.85218 | 33065 ft | 498 kts | 131° |
| 2026-05-05 00:00 | 27.73113 | -78.78797 | 33061 ft | 497 kts | 131° |
| 2026-05-05 00:01 | 27.69165 | -78.72387 | 33064 ft | 497 kts | 131° |
| 2026-05-05 00:01 | 27.65241 | -78.66026 | 33061 ft | 497 kts | 131° |
| 2026-05-05 00:02 | 27.61344 | -78.59563 | 33057 ft | 498 kts | 129° |
| 2026-05-05 00:02 | 27.57549 | -78.53020 | 33058 ft | 498 kts | 129° |
| 2026-05-05 00:03 | 27.53748 | -78.46478 | 33060 ft | 498 kts | 129° |
| 2026-05-05 00:03 | 27.49952 | -78.39994 | 33060 ft | 498 kts | 129° |
| 2026-05-05 00:04 | 27.46126 | -78.33484 | 33062 ft | 498 kts | 130° |
| 2026-05-05 00:04 | 27.42299 | -78.26981 | 33053 ft | 498 kts | 130° |
| 2026-05-05 00:05 | 27.38464 | -78.20470 | 33053 ft | 498 kts | 130° |
| 2026-05-05 00:05 | 27.34633 | -78.13974 | 33054 ft | 498 kts | 130° |
| 2026-05-05 00:06 | 27.30795 | -78.07470 | 33053 ft | 499 kts | 130° |
| 2026-05-05 00:06 | 27.26963 | -78.00970 | 33053 ft | 499 kts | 130° |
| 2026-05-05 00:07 | 27.23129 | -77.94475 | 33052 ft | 499 kts | 130° |
| 2026-05-05 00:07 | 27.19292 | -77.87984 | 33052 ft | 498 kts | 130° |
| 2026-05-05 00:08 | 27.15453 | -77.81500 | 33046 ft | 498 kts | 130° |
| 2026-05-05 00:08 | 27.11636 | -77.75063 | 33046 ft | 498 kts | 129° |
| 2026-05-05 00:09 | 27.07796 | -77.68594 | 33047 ft | 498 kts | 129° |
| 2026-05-05 00:09 | 27.03954 | -77.62132 | 33046 ft | 498 kts | 129° |
| 2026-05-05 00:10 | 27.00117 | -77.55682 | 33044 ft | 498 kts | 129° |
| 2026-05-05 00:10 | 26.96318 | -77.49188 | 33042 ft | 498 kts | 129° |
| 2026-05-05 00:11 | 26.92535 | -77.42673 | 33043 ft | 498 kts | 128° |
| 2026-05-05 00:11 | 26.88747 | -77.36165 | 33046 ft | 498 kts | 129° |
| 2026-05-05 00:12 | 26.84950 | -77.29667 | 33047 ft | 499 kts | 129° |
| 2026-05-05 00:12 | 26.81144 | -77.23166 | 33038 ft | 499 kts | 129° |
| 2026-05-05 00:13 | 26.77356 | -77.16708 | 33044 ft | 500 kts | 129° |
| 2026-05-05 00:13 | 26.73530 | -77.10193 | 33042 ft | 501 kts | 129° |
| 2026-05-05 00:14 | 26.62122 | -76.90801 | 33042 ft | 504 kts | 129° |
| 2026-05-05 00:14 | 26.30998 | -76.38353 | 33034 ft | 508 kts | 129° |
| 2026-05-05 00:15 | 25.99545 | -75.85959 | 32987 ft | 508 kts | 130° |
| 2026-05-05 00:15 | 25.68379 | -75.34612 | 32939 ft | 493 kts | 130° |
| 2026-05-05 00:16 | 25.37708 | -74.84768 | 33066 ft | 494 kts | 130° |
| 2026-05-05 00:16 | 25.06293 | -74.34069 | 33042 ft | 505 kts | 130° |
| 2026-05-05 00:17 | 24.74451 | -73.83270 | 32969 ft | 499 kts | 130° |
| 2026-05-05 00:17 | 24.43957 | -73.33027 | 32978 ft | 491 kts | 124° |
| 2026-05-05 00:18 | 23.86679 | -72.26935 | 33069 ft | 507 kts | 126° |
| 2026-05-05 00:19 | 23.57510 | -71.74809 | 32968 ft | 500 kts | 129° |
| 2026-05-05 00:19 | 23.40949 | -71.51006 | 32991 ft | 486 kts | 136° |
| 2026-05-05 00:19 | 23.23816 | -71.28095 | 33067 ft | 490 kts | 133° |
| 2026-05-05 00:20 | 22.91027 | -70.80682 | 33032 ft | 489 kts | 134° |
| 2026-05-05 00:20 | 22.59811 | -70.36556 | 33039 ft | 490 kts | 133° |
| 2026-05-05 00:21 | 22.55661 | -70.30756 | 33042 ft | 490 kts | 133° |
| 2026-05-05 00:21 | 22.51481 | -70.24925 | 33048 ft | 490 kts | 133° |
| 2026-05-05 00:22 | 22.47312 | -70.19092 | 33046 ft | 490 kts | 133° |
| 2026-05-05 00:22 | 22.43141 | -70.13251 | 33045 ft | 490 kts | 133° |
| 2026-05-05 00:23 | 22.38975 | -70.07424 | 33048 ft | 490 kts | 132° |
| 2026-05-05 00:23 | 22.34804 | -70.01597 | 33047 ft | 490 kts | 132° |
| 2026-05-05 00:24 | 22.30624 | -69.95778 | 33047 ft | 490 kts | 133° |
| 2026-05-05 00:24 | 22.26437 | -69.90027 | 33050 ft | 490 kts | 133° |
| 2026-05-05 00:25 | 22.22192 | -69.84186 | 33047 ft | 490 kts | 132° |
| 2026-05-05 00:25 | 21.88868 | -69.38028 | 33050 ft | 490 kts | 132° |
| 2026-05-05 00:26 | 21.55228 | -68.91859 | 33068 ft | 490 kts | 131° |
| 2026-05-05 00:26 | 21.21466 | -68.45890 | 33060 ft | 489 kts | 131° |
| 2026-05-05 00:27 | 20.87661 | -68.00236 | 33059 ft | 487 kts | 131° |
| 2026-05-05 00:27 | 20.54601 | -67.54928 | 33067 ft | 486 kts | 130° |
| 2026-05-05 00:28 | 20.21277 | -67.09672 | 33080 ft | 484 kts | 130° |
| 2026-05-05 00:28 | 19.89289 | -66.63634 | 33072 ft | 487 kts | 119° |
| 2026-05-05 00:29 | 19.73673 | -66.27585 | 33064 ft | 485 kts | 120° |
| 2026-05-05 00:29 | 19.70248 | -66.21435 | 33072 ft | 483 kts | 122° |
| 2026-05-05 00:30 | 19.66878 | -66.15260 | 33070 ft | 483 kts | 120° |
| 2026-05-05 00:30 | 19.63658 | -66.09004 | 33075 ft | 482 kts | 119° |
| 2026-05-05 00:31 | 19.60505 | -66.02738 | 33073 ft | 481 kts | 119° |
| 2026-05-05 00:31 | 19.37038 | -65.56439 | 33078 ft | 477 kts | 119° |
| 2026-05-05 00:32 | 19.30496 | -65.43597 | 33082 ft | 477 kts | 119° |
| 2026-05-05 00:32 | 19.28909 | -65.40485 | 32862 ft | 482 kts | 119° |
| 2026-05-05 00:32 | 19.25159 | -65.33157 | 32071 ft | 489 kts | 119° |
| 2026-05-05 00:32 | 19.12009 | -65.07591 | 29318 ft | 496 kts | 118° |
| 2026-05-05 00:33 | 18.99077 | -64.82200 | 26095 ft | 485 kts | 119° |
| 2026-05-05 00:33 | 18.96480 | -64.77130 | 25467 ft | 479 kts | 120° |
| 2026-05-05 00:33 | 18.88709 | -64.62240 | 23414 ft | 438 kts | 120° |
| 2026-05-05 00:33 | 18.77095 | -64.39894 | 20228 ft | 438 kts | 120° |
| 2026-05-05 00:34 | 18.73498 | -64.32995 | 19347 ft | 452 kts | 119° |
| 2026-05-05 00:34 | 18.71987 | -64.30070 | 18978 ft | 456 kts | 119° |
| 2026-05-05 00:34 | 18.70472 | -64.27135 | 18596 ft | 454 kts | 119° |
| 2026-05-05 00:34 | 18.68961 | -64.24215 | 18190 ft | 452 kts | 119° |
| 2026-05-05 00:35 | 18.67454 | -64.21310 | 17760 ft | 450 kts | 119° |
| 2026-05-05 00:35 | 18.65958 | -64.18433 | 17330 ft | 445 kts | 119° |
| 2026-05-05 00:35 | 18.64478 | -64.15589 | 16904 ft | 437 kts | 119° |
| 2026-05-05 00:35 | 18.63034 | -64.12819 | 16481 ft | 426 kts | 119° |
| 2026-05-05 00:36 | 18.53498 | -63.94559 | 13825 ft | 367 kts | 119° |
| 2026-05-05 00:36 | 18.49214 | -63.86376 | 12682 ft | 341 kts | 119° |
| 2026-05-05 00:36 | 18.42502 | -63.73566 | 12137 ft | 330 kts | 119° |
| 2026-05-05 00:36 | 18.40087 | -63.68962 | 11744 ft | 336 kts | 119° |
| 2026-05-05 00:37 | 18.38920 | -63.66839 | 11545 ft | 334 kts | 125° |
| 2026-05-05 00:37 | 18.37369 | -63.65041 | 11340 ft | 332 kts | 136° |
| 2026-05-05 00:37 | 18.35677 | -63.63370 | 11027 ft | 333 kts | 137° |
| 2026-05-05 00:37 | 18.33992 | -63.61729 | 10738 ft | 327 kts | 137° |
| 2026-05-05 00:38 | 18.32340 | -63.60118 | 10456 ft | 321 kts | 137° |
| 2026-05-05 00:38 | 18.30715 | -63.58526 | 10123 ft | 318 kts | 137° |
| 2026-05-05 00:38 | 18.29106 | -63.56940 | 9763 ft | 315 kts | 137° |
| 2026-05-05 00:38 | 18.27517 | -63.55369 | 9378 ft | 312 kts | 136° |
| 2026-05-05 00:39 | 18.25943 | -63.53809 | 9008 ft | 310 kts | 136° |
| 2026-05-05 00:39 | 18.19714 | -63.47635 | 7702 ft | 294 kts | 136° |
| 2026-05-05 00:39 | 18.18254 | -63.46184 | 7392 ft | 291 kts | 136° |
| 2026-05-05 00:39 | 18.16790 | -63.44728 | 7083 ft | 288 kts | 136° |
| 2026-05-05 00:40 | 18.12019 | -63.40011 | 6034 ft | 279 kts | 136° |
| 2026-05-05 00:40 | 18.10617 | -63.38615 | 5716 ft | 276 kts | 135° |
| 2026-05-05 00:40 | 18.09226 | -63.37227 | 5291 ft | 277 kts | 136° |
| 2026-05-05 00:40 | 18.07837 | -63.35844 | 4860 ft | 273 kts | 136° |
| 2026-05-05 00:41 | 18.06461 | -63.34479 | 4291 ft | 270 kts | 136° |
| 2026-05-05 00:41 | 18.05129 | -63.33159 | 3922 ft | 255 kts | 136° |
| 2026-05-05 00:41 | 18.03870 | -63.31913 | 3672 ft | 243 kts | 136° |
| 2026-05-05 00:41 | 18.02673 | -63.30717 | 3453 ft | 232 kts | 133° |
| 2026-05-05 00:42 | 18.01979 | -63.29265 | 3264 ft | 221 kts | 101° |
| 2026-05-05 00:42 | 18.01895 | -63.27686 | 2999 ft | 214 kts | 91° |
| 2026-05-05 00:42 | 18.01945 | -63.26153 | 2711 ft | 206 kts | 88° |
| 2026-05-05 00:42 | 18.02116 | -63.24682 | 2443 ft | 200 kts | 84° |
| 2026-05-05 00:43 | 18.02325 | -63.23267 | 2181 ft | 190 kts | 84° |
| 2026-05-05 00:43 | 18.02516 | -63.21939 | 1952 ft | 177 kts | 85° |
| 2026-05-05 00:43 | 18.02694 | -63.20686 | 1718 ft | 170 kts | 84° |
| 2026-05-05 00:43 | 18.02869 | -63.19457 | 1507 ft | 172 kts | 83° |
| 2026-05-05 00:44 | 18.03044 | -63.18224 | 1279 ft | 173 kts | 83° |
| 2026-05-05 00:44 | 18.03222 | -63.16987 | 1040 ft | 168 kts | 84° |
| 2026-05-05 00:44 | 18.03390 | -63.15807 | 822 ft | 160 kts | 84° |
| 2026-05-05 00:44 | 18.03543 | -63.14642 | 655 ft | 156 kts | 84° |
| 2026-05-05 00:45 | 18.03722 | -63.13527 | 461 ft | 154 kts | 83° |
| 2026-05-05 00:45 | 18.03881 | -63.12430 | 191 ft | 148 kts | 84° |
| 2026-05-05 00:45 | 18.04021 | -63.11409 | 21 ft | 130 kts | 84° |
| 2026-05-05 00:45 | 18.04127 | -63.10655 | 22 ft | 74 kts | 82° |
| 2026-05-05 00:46 | 18.04171 | -63.10345 | 19 ft | 12 kts | 81° |
| 2026-05-05 00:46 | 18.04182 | -63.10272 | 19 ft | 17 kts | 81° |
| 2026-05-05 00:46 | 18.04202 | -63.10138 | 19 ft | 19 kts | 81° |
| 2026-05-05 00:46 | 18.04222 | -63.10007 | 18 ft | 14 kts | 81° |
| 2026-05-05 00:47 | 18.04257 | -63.09927 | 19 ft | 12 kts | 52° |
| 2026-05-05 00:47 | 18.04291 | -63.09870 | 20 ft | 4 kts | 83° |
| 2026-05-05 00:47 | 18.04274 | -63.09848 | 20 ft | 5 kts | 156° |
| 2026-05-05 00:47 | 18.04244 | -63.09872 | 19 ft | 15 kts | 245° |
| 2026-05-05 00:48 | 18.04221 | -63.09999 | 19 ft | 18 kts | 261° |
| 2026-05-05 00:48 | 18.04202 | -63.10128 | 19 ft | 17 kts | 261° |
| 2026-05-05 00:48 | 18.04183 | -63.10251 | 19 ft | 17 kts | 261° |
| 2026-05-05 00:48 | 18.04168 | -63.10371 | 19 ft | 16 kts | 262° |
| 2026-05-05 00:49 | 18.04153 | -63.10487 | 20 ft | 16 kts | 259° |
| 2026-05-05 00:49 | 18.04135 | -63.10597 | 20 ft | 15 kts | 261° |
| 2026-05-05 00:49 | 18.04118 | -63.10715 | 20 ft | 21 kts | 262° |
| 2026-05-05 00:49 | 18.04097 | -63.10869 | 20 ft | 21 kts | 262° |
| 2026-05-05 00:50 | 18.04109 | -63.10984 | 21 ft | 14 kts | 324° |
| 2026-05-05 00:50 | 18.04165 | -63.11039 | 20 ft | 11 kts | 266° |
| 2026-05-05 00:50 | 18.04158 | -63.11116 | 20 ft | 10 kts | 259° |
| 2026-05-05 00:50 | 18.04145 | -63.11196 | 20 ft | 12 kts | 261° |
| 2026-05-05 00:51 | 18.04139 | -63.11281 | 20 ft | 10 kts | 289° |
| 2026-05-05 00:51 | 18.04202 | -63.11306 | 20 ft | 11 kts | 356° |
| 2026-05-05 00:51 | 18.04274 | -63.11292 | 20 ft | 11 kts | 31° |
| 2026-05-05 00:51 | 18.04330 | -63.11292 | 20 ft | 2 kts | 351° |
| 2026-05-05 00:52 | 18.04339 | -63.11293 | 20 ft | 0 kts | 351° |